Duke Street, Reading, Berkshire, RG1 4RU, United Kingdom

Reading Town Centre Webcam

Live Image

Oscura's Reading Webcam is aimed out of our top floor offices in Duke Street, central Reading town centre, Berkshire. Our camera is facing South West with a view of the Reading Oracle Shopping Centre.

Previous Hours

Current weather conditions and forecast for Reading, Berkshire

When Temp Weather Wind Cloud Humidity Rain Snow
Now 13C Light Rain 0mph ENE 99% 99% 71% 0%
14 Oct 21:00 12C Intermittent Rain 8mph SW 98% 98% 47% 0%
15 Oct 00:00 11C Cloudy 13mph SW 89% 96% 23% 0%
15 Oct 03:00 10C Cloudy 11mph WSW 97% 93% 0% 0%
15 Oct 06:00 9C Partly Cloudy 4mph SW 84% 95% 0% 0%
15 Oct 09:00 10C Intermittent Rain 4mph SSW 95% 92% 23% 0%
15 Oct 12:00 13C Partly Cloudy 6mph SW 66% 80% 0% 0%
15 Oct 15:00 14C Showers 8mph SW 71% 79% 47% 0%
15 Oct 18:00 12C Partly Cloudy 6mph SSW 58% 88% 0% 0%
15 Oct 21:00 10C Partly Cloudy 6mph SSW 57% 94% 0% 0%
16 Oct 00:00 10C Showers 6mph SW 72% 95% 23% 0%
16 Oct 03:00 11C Intermittent Rain 6mph SSE 99% 92% 71% 0%
16 Oct 06:00 13C Intermittent Rain 13mph SSE 99% 91% 61% 0%
16 Oct 09:00 14C Light Rain 13mph SSW 100% 95% 85% 0%
16 Oct 12:00 14C Showers 15mph WSW 75% 85% 21% 0%
16 Oct 15:00 12C Cloudy 13mph W 98% 74% 0% 0%
16 Oct 18:00 10C Partly Cloudy 8mph WSW 66% 79% 0% 0%
16 Oct 21:00 8C Clear 4mph SW 0% 86% 0% 0%
17 Oct 00:00 7C Fair 4mph SSW 7% 85% 0% 0%
17 Oct 03:00 8C Showers 4mph S 50% 82% 15% 0%
17 Oct 07:00 8C Showers 2mph WSW 79% 89% 15% 0%
17 Oct 10:00 11C Fair 11mph SSW 36% 78% 0% 0%
17 Oct 13:00 13C Showers 15mph SSW 47% 68% 15% 0%
17 Oct 16:00 13C Fair 15mph SSW 24% 70% 0% 0%
17 Oct 19:00 10C Clear 11mph SSW 0% 81% 0% 0%


Oscura provide website development, web server hosting, Internet services and IT Support in Reading and the surrounding area.